YKUW weather

Kurweeton Airport
Victoria, Australia

Public forecast

Using degrees Celsius for public forecast. Weather courtesy of forecast.io.

METAR (pilot weather report)

Closest report is Avalon Airport, 62.4 nm (115.5 km) E. Retrieved 2019/04/21 09:30 UTC (14 minutes ago):

YMAV 210930Z AUTO 26015KT 9999 // OVC125 17/12 Q1019 RF00.0/000.0

TAF (pilot weather forecast)

Closest forecast is Avalon Airport, 62.4 nm (115.5 km) E. Retrieved 2019/04/21 05:00 UTC (5 hours ago):

TAF YMAV 210505Z 2105/2206 21007KT 9999 -SHRA NSC FM211000 24012KT 9999 -SHRA SCT015 BKN025 FM211600 22008KT 9999 FEW018 BKN030 FM220200 15012KT 9999 SCT025 BKN035 INTER 2116/2120 5000 SHRA BKN010